sensor_id;sensor_type;location;lat;lon;timestamp;P1;durP1;ratioP1;P2;durP2;ratioP2
66707;SDS011;53622;0.000;0.000;2023-12-29T00:00:27;2.58;;;2.38;;
66707;SDS011;53622;0.000;0.000;2023-12-29T00:02:56;2.47;;;2.25;;
66707;SDS011;53622;0.000;0.000;2023-12-29T00:05:25;2.75;;;2.10;;
66707;SDS011;53622;0.000;0.000;2023-12-29T00:07:54;2.92;;;2.38;;
66707;SDS011;53622;0.000;0.000;2023-12-29T00:10:23;2.88;;;2.25;;
66707;SDS011;53622;0.000;0.000;2023-12-29T00:12:52;2.80;;;2.22;;
66707;SDS011;53622;0.000;0.000;2023-12-29T00:15:21;2.30;;;2.10;;
66707;SDS011;53622;0.000;0.000;2023-12-29T00:17:51;2.60;;;2.40;;
66707;SDS011;53622;0.000;0.000;2023-12-29T00:20:20;2.50;;;2.17;;
66707;SDS011;53622;0.000;0.000;2023-12-29T00:23:03;2.55;;;2.05;;
66707;SDS011;53622;0.000;0.000;2023-12-29T00:25:32;2.55;;;2.35;;
66707;SDS011;53622;0.000;0.000;2023-12-29T00:28:03;3.28;;;2.13;;
66707;SDS011;53622;0.000;0.000;2023-12-29T00:30:33;2.95;;;2.45;;
66707;SDS011;53622;0.000;0.000;2023-12-29T00:33:26;2.55;;;2.20;;
66707;SDS011;53622;0.000;0.000;2023-12-29T00:35:55;2.33;;;2.13;;
66707;SDS011;53622;0.000;0.000;2023-12-29T00:38:24;2.03;;;1.83;;
66707;SDS011;53622;0.000;0.000;2023-12-29T00:40:54;2.75;;;2.25;;
66707;SDS011;53622;0.000;0.000;2023-12-29T00:43:23;2.85;;;2.20;;
66707;SDS011;53622;0.000;0.000;2023-12-29T00:45:53;2.40;;;2.20;;
66707;SDS011;53622;0.000;0.000;2023-12-29T00:48:21;2.80;;;2.40;;
66707;SDS011;53622;0.000;0.000;2023-12-29T00:50:52;2.50;;;2.28;;
66707;SDS011;53622;0.000;0.000;2023-12-29T00:53:20;2.13;;;1.92;;
66707;SDS011;53622;0.000;0.000;2023-12-29T00:55:49;2.15;;;1.95;;
66707;SDS011;53622;0.000;0.000;2023-12-29T00:58:18;4.05;;;2.13;;
66707;SDS011;53622;0.000;0.000;2023-12-29T01:00:47;1.98;;;1.80;;
66707;SDS011;53622;0.000;0.000;2023-12-29T01:03:16;2.30;;;2.10;;
66707;SDS011;53622;0.000;0.000;2023-12-29T01:05:46;2.35;;;2.00;;
66707;SDS011;53622;0.000;0.000;2023-12-29T01:08:16;3.30;;;2.35;;
66707;SDS011;53622;0.000;0.000;2023-12-29T01:10:45;2.00;;;1.80;;
66707;SDS011;53622;0.000;0.000;2023-12-29T01:13:14;2.15;;;1.95;;
66707;SDS011;53622;0.000;0.000;2023-12-29T01:15:42;2.20;;;2.00;;
66707;SDS011;53622;0.000;0.000;2023-12-29T01:18:12;3.13;;;2.20;;
66707;SDS011;53622;0.000;0.000;2023-12-29T01:20:41;3.38;;;2.13;;
66707;SDS011;53622;0.000;0.000;2023-12-29T01:23:11;3.38;;;2.08;;
66707;SDS011;53622;0.000;0.000;2023-12-29T01:25:41;2.25;;;2.05;;
66707;SDS011;53622;0.000;0.000;2023-12-29T01:28:09;1.83;;;1.73;;
66707;SDS011;53622;0.000;0.000;2023-12-29T01:30:38;2.33;;;2.13;;
66707;SDS011;53622;0.000;0.000;2023-12-29T01:33:07;1.92;;;1.83;;
66707;SDS011;53622;0.000;0.000;2023-12-29T01:35:37;2.63;;;1.80;;
66707;SDS011;53622;0.000;0.000;2023-12-29T01:38:07;2.30;;;2.10;;
66707;SDS011;53622;0.000;0.000;2023-12-29T01:40:43;2.30;;;2.10;;
66707;SDS011;53622;0.000;0.000;2023-12-29T01:43:13;1.95;;;1.83;;
66707;SDS011;53622;0.000;0.000;2023-12-29T01:45:42;2.42;;;1.98;;
66707;SDS011;53622;0.000;0.000;2023-12-29T01:48:23;2.20;;;2.00;;
66707;SDS011;53622;0.000;0.000;2023-12-29T01:50:53;2.05;;;1.80;;
66707;SDS011;53622;0.000;0.000;2023-12-29T01:53:22;2.10;;;1.90;;
66707;SDS011;53622;0.000;0.000;2023-12-29T01:56:06;2.33;;;1.80;;
66707;SDS011;53622;0.000;0.000;2023-12-29T01:58:36;1.98;;;1.80;;
66707;SDS011;53622;0.000;0.000;2023-12-29T02:01:05;2.63;;;1.95;;
66707;SDS011;53622;0.000;0.000;2023-12-29T02:03:35;2.88;;;2.35;;
66707;SDS011;53622;0.000;0.000;2023-12-29T02:06:05;3.25;;;2.08;;
66707;SDS011;53622;0.000;0.000;2023-12-29T02:08:35;2.20;;;2.00;;
66707;SDS011;53622;0.000;0.000;2023-12-29T02:11:04;2.17;;;1.98;;
66707;SDS011;53622;0.000;0.000;2023-12-29T02:13:34;2.65;;;1.88;;
66707;SDS011;53622;0.000;0.000;2023-12-29T02:16:04;2.03;;;1.92;;
66707;SDS011;53622;0.000;0.000;2023-12-29T02:18:39;1.80;;;1.60;;
66707;SDS011;53622;0.000;0.000;2023-12-29T02:21:13;2.15;;;1.95;;
66707;SDS011;53622;0.000;0.000;2023-12-29T02:23:42;2.10;;;1.90;;
66707;SDS011;53622;0.000;0.000;2023-12-29T02:26:12;2.03;;;1.92;;
66707;SDS011;53622;0.000;0.000;2023-12-29T02:28:44;2.17;;;1.98;;
66707;SDS011;53622;0.000;0.000;2023-12-29T02:31:17;2.38;;;2.08;;
66707;SDS011;53622;0.000;0.000;2023-12-29T02:33:48;2.60;;;2.20;;
66707;SDS011;53622;0.000;0.000;2023-12-29T02:36:20;1.95;;;1.80;;
66707;SDS011;53622;0.000;0.000;2023-12-29T02:38:51;2.15;;;1.70;;
66707;SDS011;53622;0.000;0.000;2023-12-29T02:41:21;2.40;;;1.83;;
66707;SDS011;53622;0.000;0.000;2023-12-29T02:43:51;1.88;;;1.77;;
66707;SDS011;53622;0.000;0.000;2023-12-29T02:46:20;2.33;;;2.13;;
66707;SDS011;53622;0.000;0.000;2023-12-29T02:48:51;2.10;;;1.90;;
66707;SDS011;53622;0.000;0.000;2023-12-29T02:51:21;2.13;;;1.73;;
66707;SDS011;53622;0.000;0.000;2023-12-29T02:53:50;2.42;;;1.70;;
66707;SDS011;53622;0.000;0.000;2023-12-29T02:56:18;1.70;;;1.60;;
66707;SDS011;53622;0.000;0.000;2023-12-29T02:58:48;1.75;;;1.65;;
66707;SDS011;53622;0.000;0.000;2023-12-29T03:01:18;2.38;;;2.17;;
66707;SDS011;53622;0.000;0.000;2023-12-29T03:03:47;2.22;;;1.70;;
66707;SDS011;53622;0.000;0.000;2023-12-29T03:06:16;1.85;;;1.75;;
66707;SDS011;53622;0.000;0.000;2023-12-29T03:08:44;1.75;;;1.65;;
66707;SDS011;53622;0.000;0.000;2023-12-29T03:11:13;2.10;;;1.90;;
66707;SDS011;53622;0.000;0.000;2023-12-29T03:13:42;1.80;;;1.70;;
66707;SDS011;53622;0.000;0.000;2023-12-29T03:16:13;1.70;;;1.60;;
66707;SDS011;53622;0.000;0.000;2023-12-29T03:18:41;2.30;;;1.90;;
66707;SDS011;53622;0.000;0.000;2023-12-29T03:21:11;2.08;;;1.85;;
66707;SDS011;53622;0.000;0.000;2023-12-29T03:23:39;2.42;;;2.22;;
66707;SDS011;53622;0.000;0.000;2023-12-29T03:26:08;2.08;;;1.88;;
66707;SDS011;53622;0.000;0.000;2023-12-29T03:28:37;2.40;;;1.88;;
66707;SDS011;53622;0.000;0.000;2023-12-29T03:31:06;2.08;;;1.95;;
66707;SDS011;53622;0.000;0.000;2023-12-29T03:33:36;2.13;;;1.92;;
66707;SDS011;53622;0.000;0.000;2023-12-29T03:36:05;3.22;;;2.13;;
66707;SDS011;53622;0.000;0.000;2023-12-29T03:38:34;1.95;;;1.85;;
66707;SDS011;53622;0.000;0.000;2023-12-29T03:41:03;2.38;;;2.17;;
66707;SDS011;53622;0.000;0.000;2023-12-29T03:43:32;2.63;;;2.42;;
66707;SDS011;53622;0.000;0.000;2023-12-29T03:46:00;2.45;;;2.10;;
66707;SDS011;53622;0.000;0.000;2023-12-29T03:48:29;2.65;;;2.45;;
66707;SDS011;53622;0.000;0.000;2023-12-29T03:50:59;2.20;;;2.00;;
66707;SDS011;53622;0.000;0.000;2023-12-29T03:53:28;2.60;;;2.40;;
66707;SDS011;53622;0.000;0.000;2023-12-29T03:55:57;2.45;;;2.25;;
66707;SDS011;53622;0.000;0.000;2023-12-29T03:58:25;2.20;;;2.00;;
66707;SDS011;53622;0.000;0.000;2023-12-29T04:00:54;2.45;;;2.25;;
66707;SDS011;53622;0.000;0.000;2023-12-29T04:03:23;2.45;;;2.25;;
66707;SDS011;53622;0.000;0.000;2023-12-29T04:05:51;3.22;;;2.50;;
66707;SDS011;53622;0.000;0.000;2023-12-29T04:08:21;3.10;;;2.60;;
66707;SDS011;53622;0.000;0.000;2023-12-29T04:10:50;3.10;;;2.47;;
66707;SDS011;53622;0.000;0.000;2023-12-29T04:13:19;2.92;;;2.53;;
66707;SDS011;53622;0.000;0.000;2023-12-29T04:15:48;2.65;;;2.45;;
66707;SDS011;53622;0.000;0.000;2023-12-29T04:18:17;2.85;;;2.60;;
66707;SDS011;53622;0.000;0.000;2023-12-29T04:20:45;2.67;;;2.47;;
66707;SDS011;53622;0.000;0.000;2023-12-29T04:23:14;2.85;;;2.65;;
66707;SDS011;53622;0.000;0.000;2023-12-29T04:25:44;3.40;;;2.58;;
66707;SDS011;53622;0.000;0.000;2023-12-29T04:28:13;2.75;;;2.55;;
66707;SDS011;53622;0.000;0.000;2023-12-29T04:30:42;2.85;;;2.50;;
66707;SDS011;53622;0.000;0.000;2023-12-29T04:33:11;3.40;;;2.60;;
66707;SDS011;53622;0.000;0.000;2023-12-29T04:35:40;3.35;;;3.05;;
66707;SDS011;53622;0.000;0.000;2023-12-29T04:38:09;2.70;;;2.50;;
66707;SDS011;53622;0.000;0.000;2023-12-29T04:40:38;2.97;;;2.67;;
66707;SDS011;53622;0.000;0.000;2023-12-29T04:43:08;2.88;;;2.67;;
66707;SDS011;53622;0.000;0.000;2023-12-29T04:45:36;3.50;;;3.20;;
66707;SDS011;53622;0.000;0.000;2023-12-29T04:48:05;3.40;;;3.10;;
66707;SDS011;53622;0.000;0.000;2023-12-29T04:50:34;2.90;;;2.63;;
66707;SDS011;53622;0.000;0.000;2023-12-29T04:53:03;3.70;;;3.25;;
66707;SDS011;53622;0.000;0.000;2023-12-29T04:55:32;3.00;;;2.80;;
66707;SDS011;53622;0.000;0.000;2023-12-29T04:58:01;3.53;;;3.22;;
66707;SDS011;53622;0.000;0.000;2023-12-29T05:00:32;3.33;;;3.03;;
66707;SDS011;53622;0.000;0.000;2023-12-29T05:03:01;3.25;;;2.95;;
66707;SDS011;53622;0.000;0.000;2023-12-29T05:05:29;3.58;;;3.28;;
66707;SDS011;53622;0.000;0.000;2023-12-29T05:07:58;3.47;;;3.17;;
66707;SDS011;53622;0.000;0.000;2023-12-29T05:10:27;3.08;;;2.78;;
66707;SDS011;53622;0.000;0.000;2023-12-29T05:12:56;3.22;;;3.03;;
66707;SDS011;53622;0.000;0.000;2023-12-29T05:15:24;3.78;;;3.15;;
66707;SDS011;53622;0.000;0.000;2023-12-29T05:17:54;4.47;;;3.20;;
66707;SDS011;53622;0.000;0.000;2023-12-29T05:20:24;3.17;;;2.95;;
66707;SDS011;53622;0.000;0.000;2023-12-29T05:22:52;3.45;;;3.15;;
66707;SDS011;53622;0.000;0.000;2023-12-29T05:25:21;3.35;;;3.05;;
66707;SDS011;53622;0.000;0.000;2023-12-29T05:27:51;3.60;;;3.30;;
66707;SDS011;53622;0.000;0.000;2023-12-29T05:30:20;3.70;;;3.13;;
66707;SDS011;53622;0.000;0.000;2023-12-29T05:32:48;3.42;;;3.13;;
66707;SDS011;53622;0.000;0.000;2023-12-29T05:35:19;3.45;;;3.15;;
66707;SDS011;53622;0.000;0.000;2023-12-29T05:37:48;3.28;;;2.97;;
66707;SDS011;53622;0.000;0.000;2023-12-29T05:40:17;3.45;;;3.15;;
66707;SDS011;53622;0.000;0.000;2023-12-29T05:42:46;3.30;;;3.00;;
66707;SDS011;53622;0.000;0.000;2023-12-29T05:45:15;4.00;;;3.58;;
66707;SDS011;53622;0.000;0.000;2023-12-29T05:47:44;3.30;;;3.00;;
66707;SDS011;53622;0.000;0.000;2023-12-29T05:50:13;3.03;;;2.83;;
66707;SDS011;53622;0.000;0.000;2023-12-29T05:52:43;3.08;;;2.80;;
66707;SDS011;53622;0.000;0.000;2023-12-29T05:55:12;3.45;;;3.15;;
66707;SDS011;53622;0.000;0.000;2023-12-29T05:57:40;3.30;;;3.00;;
66707;SDS011;53622;0.000;0.000;2023-12-29T06:00:10;3.10;;;2.85;;
66707;SDS011;53622;0.000;0.000;2023-12-29T06:02:41;3.45;;;3.13;;
66707;SDS011;53622;0.000;0.000;2023-12-29T06:05:10;3.22;;;2.92;;
66707;SDS011;53622;0.000;0.000;2023-12-29T06:07:39;3.33;;;3.03;;
66707;SDS011;53622;0.000;0.000;2023-12-29T06:10:09;3.55;;;3.13;;
66707;SDS011;53622;0.000;0.000;2023-12-29T06:12:39;3.58;;;3.28;;
66707;SDS011;53622;0.000;0.000;2023-12-29T06:15:08;3.28;;;2.97;;
66707;SDS011;53622;0.000;0.000;2023-12-29T06:17:39;3.78;;;3.47;;
66707;SDS011;53622;0.000;0.000;2023-12-29T06:20:09;3.55;;;3.25;;
66707;SDS011;53622;0.000;0.000;2023-12-29T06:22:39;3.47;;;3.08;;
66707;SDS011;53622;0.000;0.000;2023-12-29T06:25:10;3.45;;;3.13;;
66707;SDS011;53622;0.000;0.000;2023-12-29T06:27:39;3.25;;;2.95;;
66707;SDS011;53622;0.000;0.000;2023-12-29T06:30:09;2.97;;;2.67;;
66707;SDS011;53622;0.000;0.000;2023-12-29T06:32:38;2.25;;;2.15;;
66707;SDS011;53622;0.000;0.000;2023-12-29T06:35:07;2.58;;;2.33;;
66707;SDS011;53622;0.000;0.000;2023-12-29T06:37:37;3.28;;;2.38;;
66707;SDS011;53622;0.000;0.000;2023-12-29T06:40:07;4.13;;;2.15;;
66707;SDS011;53622;0.000;0.000;2023-12-29T06:42:38;2.75;;;2.13;;
66707;SDS011;53622;0.000;0.000;2023-12-29T06:45:07;3.35;;;2.45;;
66707;SDS011;53622;0.000;0.000;2023-12-29T06:47:36;2.67;;;2.17;;
66707;SDS011;53622;0.000;0.000;2023-12-29T06:50:05;2.72;;;2.13;;
66707;SDS011;53622;0.000;0.000;2023-12-29T06:52:36;5.68;;;2.83;;
66707;SDS011;53622;0.000;0.000;2023-12-29T06:55:05;6.88;;;2.60;;
66707;SDS011;53622;0.000;0.000;2023-12-29T06:57:35;4.45;;;2.85;;
66707;SDS011;53622;0.000;0.000;2023-12-29T07:00:06;3.00;;;2.67;;
66707;SDS011;53622;0.000;0.000;2023-12-29T07:02:37;4.82;;;2.70;;
66707;SDS011;53622;0.000;0.000;2023-12-29T07:05:07;4.70;;;2.60;;
66707;SDS011;53622;0.000;0.000;2023-12-29T07:07:35;2.90;;;2.53;;
66707;SDS011;53622;0.000;0.000;2023-12-29T07:10:05;5.63;;;2.55;;
66707;SDS011;53622;0.000;0.000;2023-12-29T07:12:35;3.05;;;2.28;;
66707;SDS011;53622;0.000;0.000;2023-12-29T07:15:05;5.10;;;2.95;;
66707;SDS011;53622;0.000;0.000;2023-12-29T07:17:35;3.22;;;2.40;;
66707;SDS011;53622;0.000;0.000;2023-12-29T07:20:05;5.70;;;2.78;;
66707;SDS011;53622;0.000;0.000;2023-12-29T07:22:35;3.70;;;2.42;;
66707;SDS011;53622;0.000;0.000;2023-12-29T07:25:04;3.22;;;2.75;;
66707;SDS011;53622;0.000;0.000;2023-12-29T07:27:33;5.55;;;3.40;;
66707;SDS011;53622;0.000;0.000;2023-12-29T07:30:02;4.93;;;3.03;;
66707;SDS011;53622;0.000;0.000;2023-12-29T07:32:32;4.93;;;3.40;;
66707;SDS011;53622;0.000;0.000;2023-12-29T07:35:01;7.47;;;3.00;;
66707;SDS011;53622;0.000;0.000;2023-12-29T07:37:30;6.70;;;3.60;;
66707;SDS011;53622;0.000;0.000;2023-12-29T07:39:59;6.32;;;4.18;;
66707;SDS011;53622;0.000;0.000;2023-12-29T07:42:28;7.32;;;3.63;;
66707;SDS011;53622;0.000;0.000;2023-12-29T07:44:57;3.50;;;3.13;;
66707;SDS011;53622;0.000;0.000;2023-12-29T07:47:25;6.45;;;3.17;;
66707;SDS011;53622;0.000;0.000;2023-12-29T07:49:55;5.30;;;3.20;;
66707;SDS011;53622;0.000;0.000;2023-12-29T07:52:24;4.82;;;2.80;;
66707;SDS011;53622;0.000;0.000;2023-12-29T07:54:53;3.70;;;3.22;;
66707;SDS011;53622;0.000;0.000;2023-12-29T07:57:22;6.65;;;3.25;;
66707;SDS011;53622;0.000;0.000;2023-12-29T07:59:50;4.40;;;3.22;;
66707;SDS011;53622;0.000;0.000;2023-12-29T08:02:19;6.45;;;3.10;;
66707;SDS011;53622;0.000;0.000;2023-12-29T08:04:48;7.03;;;3.42;;
66707;SDS011;53622;0.000;0.000;2023-12-29T08:07:18;4.80;;;3.20;;
66707;SDS011;53622;0.000;0.000;2023-12-29T08:09:47;4.72;;;2.92;;
66707;SDS011;53622;0.000;0.000;2023-12-29T08:12:16;7.15;;;4.00;;
66707;SDS011;53622;0.000;0.000;2023-12-29T08:14:44;5.22;;;3.40;;
66707;SDS011;53622;0.000;0.000;2023-12-29T08:17:13;7.63;;;3.67;;
66707;SDS011;53622;0.000;0.000;2023-12-29T08:19:42;5.53;;;3.22;;
66707;SDS011;53622;0.000;0.000;2023-12-29T08:22:10;9.77;;;3.42;;
66707;SDS011;53622;0.000;0.000;2023-12-29T08:24:41;6.68;;;3.72;;
66707;SDS011;53622;0.000;0.000;2023-12-29T08:27:11;6.68;;;3.92;;
66707;SDS011;53622;0.000;0.000;2023-12-29T08:29:40;8.18;;;3.22;;
66707;SDS011;53622;0.000;0.000;2023-12-29T08:32:09;5.80;;;3.97;;
66707;SDS011;53622;0.000;0.000;2023-12-29T08:34:38;5.40;;;3.90;;
66707;SDS011;53622;0.000;0.000;2023-12-29T08:37:06;9.40;;;4.13;;
66707;SDS011;53622;0.000;0.000;2023-12-29T08:39:35;6.15;;;3.60;;
66707;SDS011;53622;0.000;0.000;2023-12-29T08:42:05;7.88;;;3.50;;
66707;SDS011;53622;0.000;0.000;2023-12-29T08:44:34;8.80;;;3.10;;
66707;SDS011;53622;0.000;0.000;2023-12-29T08:47:03;4.15;;;3.15;;
66707;SDS011;53622;0.000;0.000;2023-12-29T08:49:34;4.70;;;3.08;;
66707;SDS011;53622;0.000;0.000;2023-12-29T08:52:04;3.78;;;3.00;;
66707;SDS011;53622;0.000;0.000;2023-12-29T08:54:33;3.22;;;2.92;;
66707;SDS011;53622;0.000;0.000;2023-12-29T08:57:02;4.13;;;3.10;;
66707;SDS011;53622;0.000;0.000;2023-12-29T08:59:32;3.63;;;3.00;;
66707;SDS011;53622;0.000;0.000;2023-12-29T09:02:01;3.45;;;3.10;;
66707;SDS011;53622;0.000;0.000;2023-12-29T09:04:30;3.83;;;2.83;;
66707;SDS011;53622;0.000;0.000;2023-12-29T09:06:59;4.50;;;4.03;;
66707;SDS011;53622;0.000;0.000;2023-12-29T09:09:28;5.80;;;5.20;;
66707;SDS011;53622;0.000;0.000;2023-12-29T09:11:56;5.00;;;4.35;;
66707;SDS011;53622;0.000;0.000;2023-12-29T09:14:25;5.68;;;4.20;;
66707;SDS011;53622;0.000;0.000;2023-12-29T09:16:58;4.97;;;3.90;;
66707;SDS011;53622;0.000;0.000;2023-12-29T09:19:27;5.70;;;3.88;;
66707;SDS011;53622;0.000;0.000;2023-12-29T09:22:05;6.90;;;4.22;;
66707;SDS011;53622;0.000;0.000;2023-12-29T09:24:34;4.93;;;3.45;;
66707;SDS011;53622;0.000;0.000;2023-12-29T09:27:03;3.78;;;3.35;;
66707;SDS011;53622;0.000;0.000;2023-12-29T09:29:32;4.00;;;3.58;;
66707;SDS011;53622;0.000;0.000;2023-12-29T09:32:03;3.17;;;2.90;;
66707;SDS011;53622;0.000;0.000;2023-12-29T09:34:32;3.97;;;3.42;;
66707;SDS011;53622;0.000;0.000;2023-12-29T09:37:01;3.67;;;3.10;;
66707;SDS011;53622;0.000;0.000;2023-12-29T09:39:29;3.45;;;3.15;;
66707;SDS011;53622;0.000;0.000;2023-12-29T09:41:59;5.80;;;3.20;;
66707;SDS011;53622;0.000;0.000;2023-12-29T09:44:29;5.60;;;4.07;;
66707;SDS011;53622;0.000;0.000;2023-12-29T09:47:00;5.90;;;3.92;;
66707;SDS011;53622;0.000;0.000;2023-12-29T09:49:34;3.70;;;3.40;;
66707;SDS011;53622;0.000;0.000;2023-12-29T09:52:05;4.55;;;3.33;;
66707;SDS011;53622;0.000;0.000;2023-12-29T09:54:35;4.20;;;3.50;;
66707;SDS011;53622;0.000;0.000;2023-12-29T09:57:04;4.75;;;3.10;;
66707;SDS011;53622;0.000;0.000;2023-12-29T09:59:34;3.60;;;3.30;;
66707;SDS011;53622;0.000;0.000;2023-12-29T10:02:06;7.53;;;6.65;;
66707;SDS011;53622;0.000;0.000;2023-12-29T10:04:42;11.02;;;7.22;;
66707;SDS011;53622;0.000;0.000;2023-12-29T10:07:13;7.32;;;5.82;;
66707;SDS011;53622;0.000;0.000;2023-12-29T10:09:47;7.85;;;5.72;;
66707;SDS011;53622;0.000;0.000;2023-12-29T10:12:20;6.70;;;4.50;;
66707;SDS011;53622;0.000;0.000;2023-12-29T10:14:53;6.15;;;3.90;;
66707;SDS011;53622;0.000;0.000;2023-12-29T10:17:38;5.38;;;3.83;;
66707;SDS011;53622;0.000;0.000;2023-12-29T10:20:15;4.53;;;3.80;;
66707;SDS011;53622;0.000;0.000;2023-12-29T10:22:54;6.05;;;5.38;;
66707;SDS011;53622;0.000;0.000;2023-12-29T10:25:31;10.20;;;5.40;;
66707;SDS011;53622;0.000;0.000;2023-12-29T10:27:59;6.75;;;5.32;;
66707;SDS011;53622;0.000;0.000;2023-12-29T10:30:28;10.32;;;5.05;;
66707;SDS011;53622;0.000;0.000;2023-12-29T10:33:04;6.40;;;4.68;;
66707;SDS011;53622;0.000;0.000;2023-12-29T10:35:34;4.57;;;4.10;;
66707;SDS011;53622;0.000;0.000;2023-12-29T10:38:08;5.75;;;4.05;;
66707;SDS011;53622;0.000;0.000;2023-12-29T10:40:38;6.22;;;3.83;;
66707;SDS011;53622;0.000;0.000;2023-12-29T10:43:06;4.10;;;3.72;;
66707;SDS011;53622;0.000;0.000;2023-12-29T10:45:36;5.07;;;4.30;;
66707;SDS011;53622;0.000;0.000;2023-12-29T10:48:07;4.63;;;4.22;;
66707;SDS011;53622;0.000;0.000;2023-12-29T10:50:42;4.13;;;3.72;;
66707;SDS011;53622;0.000;0.000;2023-12-29T10:53:13;7.82;;;4.40;;
66707;SDS011;53622;0.000;0.000;2023-12-29T10:55:43;5.95;;;4.30;;
66707;SDS011;53622;0.000;0.000;2023-12-29T10:58:14;6.80;;;4.03;;
66707;SDS011;53622;0.000;0.000;2023-12-29T11:00:44;11.20;;;5.03;;
66707;SDS011;53622;0.000;0.000;2023-12-29T11:03:15;5.30;;;4.25;;
66707;SDS011;53622;0.000;0.000;2023-12-29T11:05:44;8.82;;;4.50;;
66707;SDS011;53622;0.000;0.000;2023-12-29T11:08:16;6.07;;;4.60;;
66707;SDS011;53622;0.000;0.000;2023-12-29T11:10:47;5.43;;;4.00;;
66707;SDS011;53622;0.000;0.000;2023-12-29T11:13:16;6.85;;;4.63;;
66707;SDS011;53622;0.000;0.000;2023-12-29T11:15:47;8.23;;;5.40;;
66707;SDS011;53622;0.000;0.000;2023-12-29T11:18:17;6.32;;;4.55;;
66707;SDS011;53622;0.000;0.000;2023-12-29T11:20:46;7.90;;;4.40;;
66707;SDS011;53622;0.000;0.000;2023-12-29T11:23:15;5.25;;;4.53;;
66707;SDS011;53622;0.000;0.000;2023-12-29T11:25:44;6.90;;;4.72;;
66707;SDS011;53622;0.000;0.000;2023-12-29T11:28:13;5.75;;;4.47;;
66707;SDS011;53622;0.000;0.000;2023-12-29T11:30:43;5.82;;;4.40;;
66707;SDS011;53622;0.000;0.000;2023-12-29T11:33:13;7.13;;;5.05;;
66707;SDS011;53622;0.000;0.000;2023-12-29T11:35:50;4.95;;;4.47;;
66707;SDS011;53622;0.000;0.000;2023-12-29T11:38:29;5.45;;;4.63;;
66707;SDS011;53622;0.000;0.000;2023-12-29T11:41:08;8.20;;;5.07;;
66707;SDS011;53622;0.000;0.000;2023-12-29T11:43:39;5.63;;;5.03;;
66707;SDS011;53622;0.000;0.000;2023-12-29T11:46:10;5.63;;;4.50;;
66707;SDS011;53622;0.000;0.000;2023-12-29T11:49:06;4.97;;;4.47;;
66707;SDS011;53622;0.000;0.000;2023-12-29T11:51:39;7.28;;;4.13;;
66707;SDS011;53622;0.000;0.000;2023-12-29T11:54:10;5.45;;;4.95;;
66707;SDS011;53622;0.000;0.000;2023-12-29T11:56:50;7.55;;;4.40;;
66707;SDS011;53622;0.000;0.000;2023-12-29T11:59:19;6.75;;;4.75;;
66707;SDS011;53622;0.000;0.000;2023-12-29T12:01:50;14.75;;;4.55;;
66707;SDS011;53622;0.000;0.000;2023-12-29T12:04:38;7.30;;;4.85;;
66707;SDS011;53622;0.000;0.000;2023-12-29T12:07:15;6.05;;;3.90;;
66707;SDS011;53622;0.000;0.000;2023-12-29T12:09:45;7.47;;;4.68;;
66707;SDS011;53622;0.000;0.000;2023-12-29T12:15:08;5.22;;;4.13;;
66707;SDS011;53622;0.000;0.000;2023-12-29T12:18:00;8.07;;;4.40;;
66707;SDS011;53622;0.000;0.000;2023-12-29T12:20:33;5.38;;;4.20;;
66707;SDS011;53622;0.000;0.000;2023-12-29T12:23:04;12.07;;;4.30;;
66707;SDS011;53622;0.000;0.000;2023-12-29T12:25:39;6.72;;;3.75;;
66707;SDS011;53622;0.000;0.000;2023-12-29T12:28:08;8.95;;;4.18;;
66707;SDS011;53622;0.000;0.000;2023-12-29T12:30:37;6.75;;;4.43;;
66707;SDS011;53622;0.000;0.000;2023-12-29T12:33:06;6.13;;;4.53;;
66707;SDS011;53622;0.000;0.000;2023-12-29T12:35:38;5.88;;;4.20;;
66707;SDS011;53622;0.000;0.000;2023-12-29T12:38:10;4.55;;;4.03;;
66707;SDS011;53622;0.000;0.000;2023-12-29T12:40:39;4.65;;;4.10;;
66707;SDS011;53622;0.000;0.000;2023-12-29T12:43:11;4.50;;;3.70;;
66707;SDS011;53622;0.000;0.000;2023-12-29T12:45:46;8.23;;;4.10;;
66707;SDS011;53622;0.000;0.000;2023-12-29T12:48:19;5.57;;;3.40;;
66707;SDS011;53622;0.000;0.000;2023-12-29T12:50:51;5.43;;;4.20;;
66707;SDS011;53622;0.000;0.000;2023-12-29T12:53:25;5.70;;;3.85;;
66707;SDS011;53622;0.000;0.000;2023-12-29T12:55:54;5.85;;;4.32;;
66707;SDS011;53622;0.000;0.000;2023-12-29T12:58:23;5.40;;;4.50;;
66707;SDS011;53622;0.000;0.000;2023-12-29T13:00:53;5.53;;;4.00;;
66707;SDS011;53622;0.000;0.000;2023-12-29T13:03:26;4.80;;;4.40;;
66707;SDS011;53622;0.000;0.000;2023-12-29T13:05:55;6.25;;;3.78;;
66707;SDS011;53622;0.000;0.000;2023-12-29T13:08:26;11.70;;;4.72;;
66707;SDS011;53622;0.000;0.000;2023-12-29T13:11:06;6.45;;;4.20;;
66707;SDS011;53622;0.000;0.000;2023-12-29T13:13:36;5.75;;;4.13;;
66707;SDS011;53622;0.000;0.000;2023-12-29T13:16:05;7.70;;;4.43;;
66707;SDS011;53622;0.000;0.000;2023-12-29T13:18:34;6.55;;;3.80;;
66707;SDS011;53622;0.000;0.000;2023-12-29T13:21:04;5.82;;;3.90;;
66707;SDS011;53622;0.000;0.000;2023-12-29T13:23:35;6.95;;;3.92;;
66707;SDS011;53622;0.000;0.000;2023-12-29T13:26:05;6.70;;;3.92;;
66707;SDS011;53622;0.000;0.000;2023-12-29T13:28:36;5.88;;;3.60;;
66707;SDS011;53622;0.000;0.000;2023-12-29T13:31:07;3.63;;;3.33;;
66707;SDS011;53622;0.000;0.000;2023-12-29T13:33:41;5.50;;;3.63;;
66707;SDS011;53622;0.000;0.000;2023-12-29T13:36:19;4.05;;;3.65;;
66707;SDS011;53622;0.000;0.000;2023-12-29T13:38:58;6.35;;;3.45;;
66707;SDS011;53622;0.000;0.000;2023-12-29T13:41:35;4.53;;;3.65;;
66707;SDS011;53622;0.000;0.000;2023-12-29T13:44:05;4.82;;;3.70;;
66707;SDS011;53622;0.000;0.000;2023-12-29T13:46:35;3.90;;;3.13;;
66707;SDS011;53622;0.000;0.000;2023-12-29T13:49:05;3.60;;;3.30;;
66707;SDS011;53622;0.000;0.000;2023-12-29T13:51:35;3.83;;;3.42;;
66707;SDS011;53622;0.000;0.000;2023-12-29T13:54:05;4.22;;;3.30;;
66707;SDS011;53622;0.000;0.000;2023-12-29T13:56:35;4.05;;;3.58;;
66707;SDS011;53622;0.000;0.000;2023-12-29T13:59:03;3.78;;;3.40;;
66707;SDS011;53622;0.000;0.000;2023-12-29T14:01:34;3.40;;;3.08;;
66707;SDS011;53622;0.000;0.000;2023-12-29T14:04:06;2.97;;;2.78;;
66707;SDS011;53622;0.000;0.000;2023-12-29T14:06:41;3.22;;;2.92;;
66707;SDS011;53622;0.000;0.000;2023-12-29T14:09:16;3.72;;;3.25;;
66707;SDS011;53622;0.000;0.000;2023-12-29T14:11:45;3.90;;;3.33;;
66707;SDS011;53622;0.000;0.000;2023-12-29T14:14:20;3.22;;;2.92;;
66707;SDS011;53622;0.000;0.000;2023-12-29T14:16:50;2.92;;;2.70;;
66707;SDS011;53622;0.000;0.000;2023-12-29T14:19:20;3.50;;;3.20;;
66707;SDS011;53622;0.000;0.000;2023-12-29T14:21:49;3.55;;;2.58;;
66707;SDS011;53622;0.000;0.000;2023-12-29T14:24:23;4.03;;;3.10;;
66707;SDS011;53622;0.000;0.000;2023-12-29T14:26:55;3.05;;;2.75;;
66707;SDS011;53622;0.000;0.000;2023-12-29T14:29:26;3.28;;;2.97;;
66707;SDS011;53622;0.000;0.000;2023-12-29T14:31:55;2.70;;;2.50;;
66707;SDS011;53622;0.000;0.000;2023-12-29T14:34:24;6.55;;;3.13;;
66707;SDS011;53622;0.000;0.000;2023-12-29T14:36:52;3.00;;;2.80;;
66707;SDS011;53622;0.000;0.000;2023-12-29T14:39:23;11.77;;;3.70;;
66707;SDS011;53622;0.000;0.000;2023-12-29T14:41:52;9.43;;;3.80;;
66707;SDS011;53622;0.000;0.000;2023-12-29T14:44:21;7.80;;;4.20;;
66707;SDS011;53622;0.000;0.000;2023-12-29T14:46:51;9.88;;;4.03;;
66707;SDS011;53622;0.000;0.000;2023-12-29T14:49:19;7.45;;;3.30;;
66707;SDS011;53622;0.000;0.000;2023-12-29T14:51:48;7.45;;;3.53;;
66707;SDS011;53622;0.000;0.000;2023-12-29T14:54:17;6.10;;;3.28;;
66707;SDS011;53622;0.000;0.000;2023-12-29T14:56:47;7.20;;;4.10;;
66707;SDS011;53622;0.000;0.000;2023-12-29T14:59:16;9.38;;;5.43;;
66707;SDS011;53622;0.000;0.000;2023-12-29T15:01:44;8.10;;;7.00;;
66707;SDS011;53622;0.000;0.000;2023-12-29T15:04:13;10.93;;;6.95;;
66707;SDS011;53622;0.000;0.000;2023-12-29T15:06:42;11.18;;;6.65;;
66707;SDS011;53622;0.000;0.000;2023-12-29T15:09:10;8.27;;;5.60;;
66707;SDS011;53622;0.000;0.000;2023-12-29T15:11:40;7.45;;;5.15;;
66707;SDS011;53622;0.000;0.000;2023-12-29T15:14:10;5.03;;;4.50;;
66707;SDS011;53622;0.000;0.000;2023-12-29T15:16:39;6.35;;;4.28;;
66707;SDS011;53622;0.000;0.000;2023-12-29T15:19:07;7.45;;;3.80;;
66707;SDS011;53622;0.000;0.000;2023-12-29T15:21:37;5.88;;;3.90;;